createdAt,value
2023-05-10T00:00:23.619Z,18.40
2023-05-10T00:02:50.817Z,18.40
2023-05-10T00:05:18.412Z,18.40
2023-05-10T00:07:48.170Z,18.30
2023-05-10T00:10:15.477Z,18.30
2023-05-10T00:12:43.516Z,18.30
2023-05-10T00:15:11.571Z,18.20
2023-05-10T00:17:38.462Z,18.20
2023-05-10T00:20:06.049Z,18.20
2023-05-10T00:22:33.366Z,18.20
2023-05-10T00:25:00.837Z,18.20
2023-05-10T00:27:27.593Z,18.10
2023-05-10T00:29:54.388Z,18.10
2023-05-10T00:32:21.715Z,18.10
2023-05-10T00:34:48.697Z,18.10
2023-05-10T00:37:15.523Z,18.10
2023-05-10T00:39:42.280Z,18.00
2023-05-10T00:42:09.047Z,18.00
2023-05-10T00:44:35.853Z,18.00
2023-05-10T00:47:02.693Z,18.00
2023-05-10T00:49:30.164Z,17.90
2023-05-10T00:51:57.034Z,17.90
2023-05-10T00:54:24.041Z,17.80
2023-05-10T00:56:51.057Z,17.80
2023-05-10T00:59:18.849Z,17.90
2023-05-10T01:01:48.901Z,17.90
2023-05-10T01:04:16.704Z,17.80
2023-05-10T01:06:43.728Z,17.90
2023-05-10T01:09:11.373Z,17.90
2023-05-10T01:11:39.569Z,17.80
2023-05-10T01:14:07.802Z,17.70
2023-05-10T01:16:39.189Z,17.50
2023-05-10T01:19:27.807Z,17.40
2023-05-10T01:22:20.632Z,17.30
2023-05-10T01:25:14.788Z,17.30
2023-05-10T01:28:22.441Z,17.20
2023-05-10T01:31:09.490Z,17.10
2023-05-10T01:33:40.206Z,17.20
2023-05-10T01:36:13.759Z,17.10
2023-05-10T01:38:51.765Z,17.20
2023-05-10T01:41:26.881Z,17.20
2023-05-10T01:44:21.019Z,17.20
2023-05-10T01:47:02.346Z,17.30
2023-05-10T01:49:35.676Z,17.30
2023-05-10T01:52:09.413Z,17.20
2023-05-10T01:54:39.315Z,17.20
2023-05-10T01:57:09.823Z,17.20
2023-05-10T01:59:42.323Z,17.30
2023-05-10T02:02:12.936Z,17.30
2023-05-10T02:04:41.529Z,17.30
2023-05-10T02:07:10.704Z,17.40
2023-05-10T02:09:38.121Z,17.40
2023-05-10T02:12:07.214Z,17.50
2023-05-10T02:14:37.125Z,17.50
2023-05-10T02:17:06.918Z,17.50
2023-05-10T02:19:35.251Z,17.50
2023-05-10T02:22:02.988Z,17.50
2023-05-10T02:24:30.686Z,17.60
2023-05-10T02:26:58.065Z,17.60
2023-05-10T02:29:28.222Z,17.60
2023-05-10T02:31:57.037Z,17.50
2023-05-10T02:34:25.294Z,17.50
2023-05-10T02:36:53.333Z,17.40
2023-05-10T02:39:24.844Z,17.40
2023-05-10T02:41:52.976Z,17.40
2023-05-10T02:44:21.452Z,17.30
2023-05-10T02:46:49.014Z,17.40
2023-05-10T02:49:16.641Z,17.50
2023-05-10T02:51:47.827Z,17.50
2023-05-10T02:54:21.124Z,17.50
2023-05-10T02:56:54.664Z,17.50
2023-05-10T02:59:21.439Z,17.50
2023-05-10T03:01:48.330Z,17.40
2023-05-10T03:04:16.156Z,17.40
2023-05-10T03:06:43.380Z,17.40
2023-05-10T03:09:12.156Z,17.40
2023-05-10T03:11:57.669Z,17.50
2023-05-10T03:15:02.590Z,17.50
2023-05-10T03:17:48.963Z,17.50
2023-05-10T03:21:07.083Z,17.40
2023-05-10T03:23:47.004Z,17.50
2023-05-10T03:26:24.191Z,17.40
2023-05-10T03:28:51.644Z,17.40
2023-05-10T03:31:19.073Z,17.30
2023-05-10T03:33:50.014Z,17.40
2023-05-10T03:36:17.092Z,17.40
2023-05-10T03:38:43.856Z,17.40
2023-05-10T03:41:10.658Z,17.40
2023-05-10T03:43:37.867Z,17.40
2023-05-10T03:46:05.828Z,17.50
2023-05-10T03:48:34.048Z,17.60
2023-05-10T03:51:01.098Z,17.60
2023-05-10T03:53:28.015Z,17.60
2023-05-10T03:55:54.867Z,17.60
2023-05-10T03:58:22.819Z,17.70
2023-05-10T04:00:49.613Z,17.60
2023-05-10T04:03:16.465Z,17.60
2023-05-10T04:05:43.334Z,17.50
2023-05-10T04:08:10.322Z,17.40
2023-05-10T04:10:37.307Z,17.40
2023-05-10T04:13:04.158Z,17.40
2023-05-10T04:15:30.891Z,17.40
2023-05-10T04:17:57.702Z,17.40
2023-05-10T04:20:24.574Z,17.50
2023-05-10T04:22:51.315Z,17.50
2023-05-10T04:25:18.244Z,17.50
2023-05-10T04:27:45.051Z,17.60
2023-05-10T04:30:12.250Z,17.60
2023-05-10T04:32:39.061Z,17.60
2023-05-10T04:35:06.312Z,17.50
2023-05-10T04:37:33.096Z,17.50
2023-05-10T04:40:00.996Z,17.40
2023-05-10T04:42:27.871Z,17.50
2023-05-10T04:44:54.958Z,17.50
2023-05-10T04:47:21.785Z,17.50
2023-05-10T04:49:48.533Z,17.50
2023-05-10T04:52:16.162Z,17.50
2023-05-10T04:54:43.077Z,17.60
2023-05-10T04:57:09.926Z,17.60
2023-05-10T04:59:38.231Z,17.50
2023-05-10T05:02:05.852Z,17.60
2023-05-10T05:04:33.096Z,17.60
2023-05-10T05:06:59.944Z,17.70
2023-05-10T05:09:26.710Z,17.60
2023-05-10T05:11:53.508Z,17.70
2023-05-10T05:14:22.011Z,17.70
2023-05-10T05:16:48.942Z,17.80
2023-05-10T05:19:16.458Z,17.80
2023-05-10T05:21:43.323Z,17.80
2023-05-10T05:24:11.196Z,17.80
2023-05-10T05:26:37.995Z,17.70
2023-05-10T05:29:04.986Z,17.80
2023-05-10T05:31:31.946Z,17.80
2023-05-10T05:33:59.102Z,17.80
2023-05-10T05:36:25.962Z,17.80
2023-05-10T05:38:52.855Z,17.90
2023-05-10T05:41:19.634Z,17.80
2023-05-10T05:43:46.456Z,17.70
2023-05-10T05:46:13.305Z,17.70
2023-05-10T05:48:40.111Z,17.80
2023-05-10T05:51:07.472Z,17.80
2023-05-10T05:53:35.187Z,17.90
2023-05-10T05:56:02.723Z,17.90
2023-05-10T05:58:29.569Z,17.90
2023-05-10T06:00:56.293Z,17.80
2023-05-10T06:03:23.296Z,17.90
2023-05-10T06:05:50.277Z,17.90
2023-05-10T06:08:17.009Z,17.90
2023-05-10T06:10:44.117Z,18.00
2023-05-10T06:13:11.124Z,18.00
2023-05-10T06:15:38.008Z,17.90
2023-05-10T06:18:05.148Z,18.00
2023-05-10T06:20:32.658Z,18.00
2023-05-10T06:22:59.897Z,18.00
2023-05-10T06:25:27.013Z,18.00
2023-05-10T06:27:58.375Z,18.10
2023-05-10T06:30:29.380Z,18.10
2023-05-10T06:32:56.795Z,18.20
2023-05-10T06:35:23.756Z,18.10
2023-05-10T06:37:50.756Z,18.10
2023-05-10T06:40:17.865Z,18.10
2023-05-10T06:42:45.985Z,18.20
2023-05-10T06:45:13.706Z,18.20
2023-05-10T06:47:40.725Z,18.20
2023-05-10T06:50:09.282Z,18.20
2023-05-10T06:52:36.283Z,18.20
2023-05-10T06:55:05.425Z,18.20
2023-05-10T06:57:32.950Z,18.20
2023-05-10T07:00:00.642Z,18.20
2023-05-10T07:02:27.863Z,18.30
2023-05-10T07:04:55.171Z,18.30
2023-05-10T07:07:22.170Z,18.20
2023-05-10T07:09:49.996Z,18.20
2023-05-10T07:12:17.019Z,18.20
2023-05-10T07:14:44.004Z,18.20
2023-05-10T07:17:11.113Z,18.20
2023-05-10T07:19:38.077Z,18.10
2023-05-10T07:22:04.862Z,18.10
2023-05-10T07:24:32.607Z,18.00
2023-05-10T07:26:59.466Z,17.90
2023-05-10T07:29:26.649Z,17.90
2023-05-10T07:31:55.365Z,17.90
2023-05-10T07:34:24.113Z,17.90
2023-05-10T07:36:51.101Z,17.90
2023-05-10T07:39:26.579Z,17.90
2023-05-10T07:41:54.447Z,17.80
2023-05-10T07:44:21.564Z,17.80
2023-05-10T07:46:49.613Z,17.80
2023-05-10T07:49:16.825Z,17.80
2023-05-10T07:51:46.770Z,17.90
2023-05-10T07:54:13.783Z,17.90
2023-05-10T07:56:45.826Z,17.80
2023-05-10T07:59:16.600Z,17.80
2023-05-10T08:01:44.174Z,17.80
2023-05-10T08:04:11.054Z,17.60
2023-05-10T08:06:37.888Z,17.70
2023-05-10T08:09:04.914Z,17.70
2023-05-10T08:11:33.188Z,17.70
2023-05-10T08:14:01.255Z,17.80
2023-05-10T08:16:28.645Z,17.90
2023-05-10T08:18:56.626Z,17.90
2023-05-10T08:21:23.480Z,17.90
2023-05-10T08:23:50.663Z,18.00
2023-05-10T08:26:17.524Z,18.00
2023-05-10T08:28:44.321Z,18.00
2023-05-10T08:31:11.314Z,18.10
2023-05-10T08:33:38.313Z,18.10
2023-05-10T08:36:05.507Z,18.10
2023-05-10T08:38:32.369Z,18.20
2023-05-10T08:41:00.432Z,18.20
2023-05-10T08:43:32.307Z,18.30
2023-05-10T08:46:03.991Z,18.30
2023-05-10T08:48:32.287Z,18.30
2023-05-10T08:51:01.310Z,18.40
2023-05-10T08:53:29.770Z,18.40
2023-05-10T08:55:58.602Z,18.40
2023-05-10T08:58:26.135Z,18.40
2023-05-10T09:00:53.793Z,18.40
2023-05-10T09:03:20.959Z,18.40
2023-05-10T09:05:48.655Z,18.50
2023-05-10T09:08:17.356Z,18.50
2023-05-10T09:10:45.895Z,18.50
2023-05-10T09:13:16.388Z,18.50
2023-05-10T09:15:44.556Z,18.40
2023-05-10T09:18:11.697Z,18.40
2023-05-10T09:20:38.825Z,18.40
2023-05-10T09:23:06.318Z,18.50
2023-05-10T09:25:36.075Z,18.50
2023-05-10T09:28:03.338Z,18.50
2023-05-10T09:30:32.167Z,18.40
2023-05-10T09:33:01.093Z,18.50
2023-05-10T09:35:30.150Z,18.50
2023-05-10T09:38:00.827Z,18.50
2023-05-10T09:40:29.796Z,18.40
2023-05-10T09:43:05.451Z,18.40
2023-05-10T09:45:35.029Z,18.50
2023-05-10T09:48:04.646Z,18.40
2023-05-10T09:50:31.808Z,18.50
2023-05-10T09:53:01.463Z,18.50
2023-05-10T09:55:42.021Z,18.50
2023-05-10T09:58:11.767Z,18.40
2023-05-10T10:00:41.332Z,18.40
2023-05-10T10:03:17.262Z,18.50
2023-05-10T10:05:45.130Z,18.40
2023-05-10T10:08:13.624Z,18.50
2023-05-10T10:10:47.140Z,18.60
2023-05-10T10:13:14.806Z,18.60
2023-05-10T10:15:43.101Z,18.60
2023-05-10T10:18:15.758Z,18.80
2023-05-10T10:20:42.847Z,18.80
2023-05-10T10:23:10.798Z,18.90
2023-05-10T10:25:39.697Z,18.80
2023-05-10T10:28:22.768Z,18.90
2023-05-10T10:30:52.456Z,18.80
2023-05-10T10:33:58.336Z,18.70
2023-05-10T10:36:28.140Z,18.60
2023-05-10T10:39:04.150Z,18.70
2023-05-10T10:41:36.602Z,18.70
2023-05-10T10:44:31.920Z,18.70
2023-05-10T10:47:07.155Z,18.80
2023-05-10T10:49:38.804Z,18.80
2023-05-10T10:52:29.405Z,18.90
2023-05-10T10:54:59.226Z,18.90
2023-05-10T10:57:27.604Z,18.90
2023-05-10T11:00:20.973Z,19.00
2023-05-10T11:03:02.941Z,19.10
2023-05-10T11:05:42.872Z,19.10
2023-05-10T11:08:29.927Z,19.20
2023-05-10T11:11:09.996Z,19.20
2023-05-10T11:13:51.425Z,19.20
2023-05-10T11:16:18.714Z,19.20
2023-05-10T11:19:05.329Z,19.20
2023-05-10T11:21:33.759Z,19.20
2023-05-10T11:24:06.787Z,19.30
2023-05-10T11:26:36.246Z,19.30
2023-05-10T11:29:05.606Z,19.20
2023-05-10T11:31:32.486Z,19.30
2023-05-10T11:34:00.925Z,19.30
2023-05-10T11:36:29.886Z,19.40
2023-05-10T11:38:57.877Z,19.30
2023-05-10T11:41:25.767Z,19.20
2023-05-10T11:43:54.238Z,19.20
2023-05-10T11:46:23.113Z,19.10
2023-05-10T11:48:52.421Z,19.10
2023-05-10T11:51:26.269Z,19.00
2023-05-10T11:53:57.495Z,19.00
2023-05-10T11:56:24.674Z,19.00
2023-05-10T11:58:58.485Z,19.00
2023-05-10T12:01:27.393Z,18.90
2023-05-10T12:03:56.218Z,19.00
2023-05-10T12:06:23.616Z,18.90
2023-05-10T12:08:56.295Z,18.90
2023-05-10T12:11:26.755Z,19.00
2023-05-10T12:13:54.164Z,19.00
2023-05-10T12:16:22.733Z,19.00
2023-05-10T12:18:53.816Z,19.10
2023-05-10T12:21:24.013Z,19.10
2023-05-10T12:23:55.151Z,19.10
2023-05-10T12:26:27.463Z,19.00
2023-05-10T12:29:19.569Z,19.10
2023-05-10T12:31:57.648Z,19.10
2023-05-10T12:34:31.906Z,19.00
2023-05-10T12:36:59.228Z,18.90
2023-05-10T12:39:26.316Z,18.90
2023-05-10T12:41:53.765Z,18.90
2023-05-10T12:44:20.615Z,18.80
2023-05-10T12:46:47.425Z,18.80
2023-05-10T12:49:14.337Z,18.70
2023-05-10T12:51:41.275Z,18.60
2023-05-10T12:54:08.087Z,18.50
2023-05-10T12:56:34.853Z,18.50
2023-05-10T12:59:01.879Z,18.30
2023-05-10T13:01:28.997Z,18.30
2023-05-10T13:03:55.852Z,18.30
2023-05-10T13:06:22.722Z,18.20
2023-05-10T13:08:50.037Z,18.20
2023-05-10T13:11:18.086Z,18.20
2023-05-10T13:13:44.952Z,18.20
2023-05-10T13:16:11.698Z,18.10
2023-05-10T13:18:38.765Z,18.10
2023-05-10T13:21:06.427Z,18.00
2023-05-10T13:23:33.251Z,18.00
2023-05-10T13:25:59.985Z,17.90
2023-05-10T13:28:27.387Z,17.90
2023-05-10T13:30:54.526Z,17.90
2023-05-10T13:33:21.352Z,17.90
2023-05-10T13:35:48.246Z,17.80
2023-05-10T13:38:15.167Z,18.00
2023-05-10T13:40:42.006Z,18.00
2023-05-10T13:43:08.830Z,18.00
2023-05-10T13:45:35.615Z,18.00
2023-05-10T13:48:02.490Z,18.00
2023-05-10T13:50:29.532Z,17.90
2023-05-10T13:52:56.635Z,17.90
2023-05-10T13:55:23.583Z,17.90
2023-05-10T13:57:50.591Z,17.80
2023-05-10T14:00:18.012Z,17.80
2023-05-10T14:02:44.947Z,17.90
2023-05-10T14:05:12.786Z,18.00
2023-05-10T14:07:39.913Z,18.10
2023-05-10T14:10:08.045Z,18.20
2023-05-10T14:12:34.810Z,18.30
2023-05-10T14:15:01.880Z,18.30
2023-05-10T14:17:28.861Z,18.40
2023-05-10T14:19:56.097Z,18.30
2023-05-10T14:22:23.632Z,18.40
2023-05-10T14:24:51.203Z,18.40
2023-05-10T14:27:18.039Z,18.40
2023-05-10T14:29:44.820Z,18.50
2023-05-10T14:32:11.930Z,18.50
2023-05-10T14:34:38.743Z,18.50
2023-05-10T14:37:05.887Z,18.50
2023-05-10T14:39:34.119Z,18.60
2023-05-10T14:42:01.060Z,18.60
2023-05-10T14:44:27.950Z,18.60
2023-05-10T14:46:54.755Z,18.60
2023-05-10T14:49:23.746Z,18.60
2023-05-10T14:51:50.709Z,18.60
2023-05-10T14:54:17.679Z,18.60
2023-05-10T14:56:44.703Z,18.60
2023-05-10T14:59:11.595Z,18.60
2023-05-10T15:01:39.234Z,18.70
2023-05-10T15:04:06.447Z,18.70
2023-05-10T15:06:35.099Z,18.60
2023-05-10T15:09:04.356Z,18.60
2023-05-10T15:11:31.518Z,18.60
2023-05-10T15:13:58.259Z,18.60
2023-05-10T15:16:25.383Z,18.60
2023-05-10T15:18:52.307Z,18.70
2023-05-10T15:21:19.248Z,18.80
2023-05-10T15:23:46.098Z,18.80
2023-05-10T15:26:12.895Z,18.80
2023-05-10T15:28:39.590Z,18.80
2023-05-10T15:31:06.480Z,18.90
2023-05-10T15:33:33.523Z,18.80
2023-05-10T15:36:00.287Z,18.80
2023-05-10T15:38:27.094Z,18.80
2023-05-10T15:40:59.132Z,18.90
2023-05-10T15:43:25.921Z,18.90
2023-05-10T15:45:52.800Z,18.90
2023-05-10T15:48:19.543Z,18.90
2023-05-10T15:50:46.516Z,18.90
2023-05-10T15:53:13.362Z,18.90
2023-05-10T15:55:40.261Z,18.70
2023-05-10T15:58:07.434Z,18.80
2023-05-10T16:00:34.395Z,18.80
2023-05-10T16:03:01.553Z,18.80
2023-05-10T16:05:32.093Z,18.80
2023-05-10T16:07:59.481Z,18.80
2023-05-10T16:10:26.254Z,18.80
2023-05-10T16:12:56.926Z,18.80
2023-05-10T16:15:23.779Z,18.80
2023-05-10T16:17:51.231Z,18.70
2023-05-10T16:20:18.443Z,18.70
2023-05-10T16:22:45.422Z,18.70
2023-05-10T16:25:13.625Z,18.70
2023-05-10T16:27:40.937Z,18.70
2023-05-10T16:30:08.705Z,18.70
2023-05-10T16:32:35.685Z,18.80
2023-05-10T16:35:02.729Z,18.80
2023-05-10T16:37:29.691Z,18.80
2023-05-10T16:39:56.476Z,18.70
2023-05-10T16:42:24.225Z,18.60
2023-05-10T16:44:51.045Z,18.60
2023-05-10T16:47:18.204Z,18.70
2023-05-10T16:49:44.981Z,18.80
2023-05-10T16:52:11.845Z,18.80
2023-05-10T16:54:38.777Z,18.70
2023-05-10T16:57:05.776Z,18.70
2023-05-10T16:59:32.602Z,18.70
2023-05-10T17:01:59.686Z,18.60
2023-05-10T17:04:26.666Z,18.60
2023-05-10T17:06:53.492Z,18.60
2023-05-10T17:09:20.665Z,18.60
2023-05-10T17:11:47.432Z,18.70
2023-05-10T17:14:14.381Z,18.70
2023-05-10T17:16:42.013Z,18.70
2023-05-10T17:19:09.513Z,18.70
2023-05-10T17:21:36.764Z,18.80
2023-05-10T17:24:03.555Z,18.80
2023-05-10T17:26:30.717Z,18.70
2023-05-10T17:28:57.967Z,18.60
2023-05-10T17:31:25.079Z,18.60
2023-05-10T17:33:52.109Z,18.60
2023-05-10T17:36:19.099Z,18.60
2023-05-10T17:38:45.914Z,18.70
2023-05-10T17:41:12.728Z,18.70
2023-05-10T17:43:39.545Z,18.70
2023-05-10T17:46:06.466Z,18.70
2023-05-10T17:48:33.425Z,18.70
2023-05-10T17:51:00.482Z,18.70
2023-05-10T17:53:27.333Z,18.70
2023-05-10T17:55:57.950Z,18.60
2023-05-10T17:58:25.217Z,18.60
2023-05-10T18:00:52.954Z,18.60
2023-05-10T18:03:20.037Z,18.60
2023-05-10T18:05:47.849Z,18.60
2023-05-10T18:08:15.076Z,18.60
2023-05-10T18:10:42.290Z,18.70
2023-05-10T18:13:09.455Z,18.60
2023-05-10T18:15:36.483Z,18.60
2023-05-10T18:18:04.642Z,18.60
2023-05-10T18:20:32.019Z,18.60
2023-05-10T18:22:58.860Z,18.50
2023-05-10T18:25:26.098Z,18.60
2023-05-10T18:27:52.974Z,18.60
2023-05-10T18:30:19.923Z,18.60
2023-05-10T18:32:47.015Z,18.50
2023-05-10T18:35:13.833Z,18.20
2023-05-10T18:37:40.681Z,18.50
2023-05-10T18:40:14.135Z,18.50
2023-05-10T18:42:46.721Z,18.50
2023-05-10T18:45:13.916Z,18.50
2023-05-10T18:47:40.802Z,18.40
2023-05-10T18:50:08.194Z,18.40
2023-05-10T18:52:36.892Z,18.30
2023-05-10T18:55:04.024Z,18.30
2023-05-10T18:57:30.953Z,18.40
2023-05-10T18:59:58.298Z,18.40
2023-05-10T19:02:26.760Z,18.40
2023-05-10T19:04:53.979Z,18.30
2023-05-10T19:07:20.948Z,18.40
2023-05-10T19:09:47.854Z,18.30
2023-05-10T19:12:14.701Z,18.30
2023-05-10T19:14:41.511Z,18.30
2023-05-10T19:17:08.870Z,18.30
2023-05-10T19:19:37.608Z,18.30
2023-05-10T19:22:04.635Z,18.20
2023-05-10T19:24:35.659Z,18.30
2023-05-10T19:27:02.920Z,18.20
2023-05-10T19:29:29.894Z,18.20
2023-05-10T19:31:57.527Z,18.10
2023-05-10T19:34:24.658Z,18.10
2023-05-10T19:36:51.497Z,18.10
2023-05-10T19:39:18.283Z,18.10
2023-05-10T19:41:45.160Z,18.10
2023-05-10T19:44:12.089Z,18.10
2023-05-10T19:46:39.202Z,18.10
2023-05-10T19:49:06.066Z,18.10
2023-05-10T19:51:32.974Z,18.00
2023-05-10T19:54:00.449Z,18.00
2023-05-10T19:56:28.838Z,18.00
2023-05-10T19:58:55.657Z,17.90
2023-05-10T20:01:22.744Z,17.90
2023-05-10T20:03:49.649Z,17.80
2023-05-10T20:06:16.455Z,17.80
2023-05-10T20:08:43.616Z,17.80
2023-05-10T20:11:10.626Z,17.80
2023-05-10T20:13:37.701Z,17.90
2023-05-10T20:16:06.161Z,18.00
2023-05-10T20:18:33.505Z,18.10
2023-05-10T20:21:01.180Z,18.00
2023-05-10T20:23:28.006Z,18.00
2023-05-10T20:25:55.308Z,18.00
2023-05-10T20:28:23.755Z,18.00
2023-05-10T20:30:55.597Z,17.90
2023-05-10T20:33:23.226Z,17.90
2023-05-10T20:35:51.358Z,17.90
2023-05-10T20:38:18.487Z,17.90
2023-05-10T20:40:45.645Z,17.80
2023-05-10T20:43:12.719Z,17.80
2023-05-10T20:45:39.651Z,17.70
2023-05-10T20:48:06.612Z,17.70
2023-05-10T20:50:33.558Z,17.70
2023-05-10T20:53:01.101Z,17.70
2023-05-10T20:55:28.641Z,17.80
2023-05-10T20:57:55.609Z,17.80
2023-05-10T21:00:22.573Z,17.80
2023-05-10T21:02:49.555Z,17.80
2023-05-10T21:05:17.856Z,17.70
2023-05-10T21:07:44.713Z,17.60
2023-05-10T21:10:11.898Z,17.60
2023-05-10T21:12:39.232Z,17.70
2023-05-10T21:15:06.505Z,17.60
2023-05-10T21:17:33.459Z,17.50
2023-05-10T21:20:00.419Z,17.50
2023-05-10T21:22:27.229Z,17.50
2023-05-10T21:24:54.002Z,17.50
2023-05-10T21:27:20.868Z,17.40
2023-05-10T21:29:47.615Z,17.40
2023-05-10T21:32:15.058Z,17.50
2023-05-10T21:34:41.977Z,17.50
2023-05-10T21:37:09.010Z,17.50
2023-05-10T21:39:36.128Z,17.40
2023-05-10T21:42:03.856Z,17.40
2023-05-10T21:44:31.625Z,17.40
2023-05-10T21:47:00.264Z,17.40
2023-05-10T21:49:27.183Z,17.40
2023-05-10T21:51:54.159Z,17.40
2023-05-10T21:54:20.907Z,17.40
2023-05-10T21:56:47.772Z,17.40
2023-05-10T21:59:14.584Z,17.40
2023-05-10T22:01:41.926Z,17.40
2023-05-10T22:04:08.788Z,17.40
2023-05-10T22:06:35.803Z,17.40
2023-05-10T22:09:02.653Z,17.40
2023-05-10T22:11:29.473Z,17.40
2023-05-10T22:13:56.420Z,17.30
2023-05-10T22:16:23.269Z,17.30
2023-05-10T22:18:50.288Z,17.30
2023-05-10T22:21:17.092Z,17.30
2023-05-10T22:23:43.896Z,17.30
2023-05-10T22:26:10.653Z,17.30
2023-05-10T22:28:37.592Z,17.30
2023-05-10T22:31:08.770Z,17.40
2023-05-10T22:33:35.535Z,17.30
2023-05-10T22:36:02.276Z,17.30
2023-05-10T22:38:29.027Z,17.30
2023-05-10T22:40:56.048Z,17.20
2023-05-10T22:43:22.963Z,17.10
2023-05-10T22:45:50.005Z,17.10
2023-05-10T22:48:16.889Z,17.10
2023-05-10T22:50:43.707Z,17.10
2023-05-10T22:53:10.840Z,17.10
2023-05-10T22:55:37.802Z,17.10
2023-05-10T22:58:04.640Z,17.10
2023-05-10T23:00:31.418Z,17.10
2023-05-10T23:02:58.279Z,17.10
2023-05-10T23:05:25.057Z,17.10
2023-05-10T23:07:53.666Z,17.10
2023-05-10T23:10:20.806Z,17.00
2023-05-10T23:12:48.264Z,17.10
2023-05-10T23:15:15.218Z,17.10
2023-05-10T23:17:41.978Z,17.20
2023-05-10T23:20:10.064Z,17.10
2023-05-10T23:22:37.427Z,17.20
2023-05-10T23:25:04.415Z,17.20
2023-05-10T23:27:31.276Z,17.10
2023-05-10T23:29:58.256Z,17.10
2023-05-10T23:32:25.330Z,17.10
2023-05-10T23:34:52.303Z,17.10
2023-05-10T23:37:19.178Z,17.10
2023-05-10T23:39:46.100Z,17.10
2023-05-10T23:42:13.392Z,17.10
2023-05-10T23:44:40.152Z,17.00
2023-05-10T23:47:07.166Z,17.00
2023-05-10T23:49:33.979Z,17.00
2023-05-10T23:52:00.856Z,16.90
2023-05-10T23:54:28.187Z,16.90
2023-05-10T23:56:55.035Z,16.80
2023-05-10T23:59:21.881Z,16.90
